Weather at Peterborough (Civic Hospital) Heliport

Public forecast

Using degrees Celsius for public forecast. Weather courtesy of forecast.io.

Closest aviation weather report (METAR) to Peterborough (Civic Hospital) Heliport

Closest report is Peterborough Municipal Airport, 4.3 nm (8.0 km) S.

2024/05/19 07:59 (retrieved 8 minutes ago)

CYPQ 190759Z AUTO 00000KT 3/8SM FG BKN002 OVC024 09/09 A2995 RMK SLP149

Closest aviation forecast (TAF) to Peterborough (Civic Hospital) Heliport

Forecast is more than 12 hours old.

Closest forecast is Peterborough Municipal Airport, 4.3 nm (8.0 km) S.

2024/05/18 20:00 (retrieved 12 hours ago)

TAF CYPQ 181940Z 1820/1902 10008KT P6SM SCT025 BKN040 TEMPO 1820/1823 BKN020 BKN040 FM190000 12005KT P6SM SCT030 RMK FCST BASED ON AUTO OBS NXT FCST BY 191000Z